Thornton, Kentucky
Current Conditions -  °F | °C
As of 9:15 PM on Thursday 20 Nov 2014 (Local Time) from KLNP Reporting Station
Clear Clear  
Wind Chill: 25°   Ceiling: Unl
Heat Index: 34°   Visibility: 10mi
Dew Point: 12°   Wind: 13mph
Humidity: 41%   Direction: 280°W
Pressure: 30.14"   Gusts: 18mph
Location:  37.17°N, 82.78°W
Report Text: KLNP 210215Z AUTO 28011G16KT 10SM CLR 01/M11 A3014 RMK AO2
Loading
Personal Weather Stations






























Interactive Weather Map New forecast layout! Learn more

10-Day Weather Forecast

Advertisements
Track Severe Weather on mobile